Time;durP1;ratioP1;P1;durP2;ratioP2;P2;SDS_P1;SDS_P2;PMS_P1;PMS_P2;Temp;Humidity;BMP_temperature;BMP_pressure;BME280_temperature;BME280_humidity;BME280_pressure;Samples;Min_cycle;Max_cycle;Signal;HPM_P1;HPM_P2
2022/03/01 00:00:56;;;;;;;0.40;0.25;;;3.90;99.30;;;;;;4991350;28;20480;-74
2022/03/01 00:03:24;;;;;;;1.65;0.45;;;3.80;98.90;;;;;;4977137;28;20488;-74
2022/03/01 00:05:49;;;;;;;2.75;0.47;;;3.80;98.60;;;;;;4992322;28;20049;-74
2022/03/01 00:08:15;;;;;;;0.57;0.30;;;3.90;98.70;;;;;;4973627;28;20033;-74
2022/03/01 00:10:40;;;;;;;1.73;0.25;;;3.80;98.60;;;;;;4976061;28;20483;-74
2022/03/01 00:13:07;;;;;;;1.05;0.70;;;3.80;98.20;;;;;;4975572;28;20476;-74
2022/03/01 00:15:33;;;;;;;1.70;0.73;;;3.80;98.40;;;;;;4991042;28;20100;-74
2022/03/01 00:17:58;;;;;;;0.13;0.10;;;3.80;98.30;;;;;;4992537;28;20038;-74
2022/03/01 00:20:24;;;;;;;1.17;0.25;;;3.80;98.50;;;;;;4975852;28;20044;-74
2022/03/01 00:22:49;;;;;;;0.65;0.40;;;3.80;98.60;;;;;;4991671;28;20052;-74
2022/03/01 00:25:15;;;;;;;0.57;0.50;;;3.80;98.60;;;;;;4988787;28;20508;-74
2022/03/01 00:27:41;;;;;;;0.77;0.60;;;3.80;98.90;;;;;;4991477;28;20046;-74
2022/03/01 00:30:07;;;;;;;0.43;0.32;;;3.80;98.80;;;;;;4990943;28;20038;-74
2022/03/01 00:32:33;;;;;;;0.38;0.38;;;3.80;98.70;;;;;;4991608;28;20045;-74
2022/03/01 00:34:58;;;;;;;4.07;1.10;;;3.70;98.60;;;;;;4993034;28;20048;-74
2022/03/01 00:37:24;;;;;;;0.75;0.57;;;3.80;98.50;;;;;;4975265;28;20033;-74
2022/03/01 00:39:50;;;;;;;0.63;0.30;;;3.80;98.90;;;;;;4976556;28;20840;-74
2022/03/01 00:42:15;;;;;;;0.50;0.50;;;3.70;98.90;;;;;;4990982;28;20080;-74
2022/03/01 00:44:41;;;;;;;0.43;0.40;;;3.70;98.70;;;;;;4994308;28;20112;-74
2022/03/01 00:47:06;;;;;;;0.60;0.52;;;3.70;98.60;;;;;;4972614;28;20045;-74
2022/03/01 00:49:32;;;;;;;0.38;0.35;;;3.70;98.80;;;;;;4991280;28;20038;-74
2022/03/01 00:51:58;;;;;;;3.28;1.23;;;3.70;98.50;;;;;;4989695;28;20033;-74
2022/03/01 00:54:23;;;;;;;0.13;0.13;;;3.70;97.30;;;;;;5007270;28;20049;-74
2022/03/01 00:56:49;;;;;;;0.40;0.40;;;3.70;98.00;;;;;;4974659;28;20099;-74
2022/03/01 00:59:14;;;;;;;0.95;0.80;;;3.70;97.90;;;;;;4990854;28;20595;-74
2022/03/01 01:01:40;;;;;;;0.50;0.50;;;3.70;97.90;;;;;;4975261;28;20033;-74
2022/03/01 01:04:05;;;;;;;0.52;0.43;;;3.70;98.70;;;;;;4992917;28;20555;-74
2022/03/01 01:06:31;;;;;;;0.30;0.30;;;3.70;99.10;;;;;;4990673;28;20395;-74
2022/03/01 01:08:57;;;;;;;1.52;0.73;;;3.60;98.20;;;;;;4970177;28;20586;-74
2022/03/01 01:11:22;;;;;;;0.38;0.38;;;3.60;98.60;;;;;;4989705;28;20092;-74
2022/03/01 01:13:48;;;;;;;0.45;0.20;;;3.60;98.70;;;;;;4991875;28;20512;-74
2022/03/01 01:16:14;;;;;;;1.65;1.02;;;3.60;98.60;;;;;;4989163;28;20042;-74
2022/03/01 01:18:43;;;;;;;0.10;0.10;;;3.60;98.40;;;;;;4990015;28;20152;-74
2022/03/01 01:21:12;;;;;;;1.13;0.60;;;3.60;98.80;;;;;;4990180;28;20062;-74
2022/03/01 01:23:41;;;;;;;0.22;0.22;;;3.60;98.80;;;;;;4991682;28;20050;-74
2022/03/01 01:26:07;;;;;;;0.40;0.35;;;3.60;98.30;;;;;;4973359;28;20038;-74
2022/03/01 01:28:33;;;;;;;1.13;1.02;;;3.60;99.00;;;;;;4990837;28;20057;-74
2022/03/01 01:30:58;;;;;;;0.85;0.63;;;3.60;99.10;;;;;;4984697;28;20082;-74
2022/03/01 01:33:24;;;;;;;0.65;0.20;;;3.60;99.40;;;;;;4987511;28;20053;-74
2022/03/01 01:35:50;;;;;;;1.30;1.02;;;3.60;99.40;;;;;;4969445;28;20404;-74
2022/03/01 01:38:15;;;;;;;2.60;0.70;;;3.50;99.60;;;;;;4976032;28;20495;-74
2022/03/01 01:40:41;;;;;;;0.28;0.22;;;3.50;98.50;;;;;;4984165;28;20048;-74
2022/03/01 01:43:07;;;;;;;1.45;1.05;;;3.50;99.10;;;;;;4988384;28;20034;-74
2022/03/01 01:45:33;;;;;;;1.48;0.65;;;3.50;99.50;;;;;;4972927;28;20478;-74
2022/03/01 01:48:00;;;;;;;1.23;0.63;;;3.50;99.90;;;;;;4986287;28;20046;-74
2022/03/01 01:50:27;;;;;;;0.88;0.68;;;3.50;99.90;;;;;;4969120;28;20581;-74
2022/03/01 01:52:54;;;;;;;0.38;0.38;;;3.50;99.90;;;;;;4973272;28;20790;-74
2022/03/01 01:55:20;;;;;;;1.10;0.63;;;3.50;99.90;;;;;;4988574;28;20061;-74
2022/03/01 01:57:46;;;;;;;1.98;0.68;;;3.40;99.90;;;;;;4975449;28;20038;-74
2022/03/01 02:00:13;;;;;;;0.60;0.50;;;3.40;99.90;;;;;;4991621;28;20722;-74
2022/03/01 02:02:39;;;;;;;1.65;0.60;;;3.40;99.90;;;;;;4968709;28;20086;-74
2022/03/01 02:05:07;;;;;;;2.33;0.25;;;3.30;99.90;;;;;;4972611;28;20384;-74
2022/03/01 02:07:33;;;;;;;0.60;0.57;;;3.30;99.90;;;;;;4996027;28;20511;-74
2022/03/01 02:09:58;;;;;;;1.67;0.77;;;3.30;99.90;;;;;;4991156;28;20054;-74
2022/03/01 02:12:24;;;;;;;0.75;0.63;;;3.30;99.90;;;;;;4991110;28;20044;-74
2022/03/01 02:14:50;;;;;;;0.47;0.43;;;3.30;99.90;;;;;;4972951;28;20084;-74
2022/03/01 02:17:17;;;;;;;0.98;0.52;;;3.20;99.90;;;;;;4989063;28;20210;-74
2022/03/01 02:19:50;;;;;;;0.30;0.30;;;3.20;99.90;;;;;;4972099;28;20105;-74
2022/03/01 02:22:16;;;;;;;0.55;0.30;;;3.30;99.90;;;;;;4973342;28;20051;-74
2022/03/01 02:24:42;;;;;;;0.35;0.30;;;3.20;99.90;;;;;;4987025;28;20574;-74
2022/03/01 02:27:07;;;;;;;0.88;0.68;;;3.20;99.90;;;;;;4973872;28;20137;-74
2022/03/01 02:29:34;;;;;;;0.70;0.57;;;3.20;99.90;;;;;;4996093;28;20100;-74
2022/03/01 02:32:04;;;;;;;1.10;0.30;;;3.20;99.90;;;;;;4978008;28;20040;-74
2022/03/01 02:34:30;;;;;;;0.10;0.10;;;3.20;99.90;;;;;;4994103;28;20121;-74
2022/03/01 02:36:56;;;;;;;0.10;0.10;;;3.20;99.90;;;;;;4980128;28;20595;-74
2022/03/01 02:39:22;;;;;;;0.40;0.40;;;3.20;99.90;;;;;;4975779;28;20625;-74
2022/03/01 02:41:48;;;;;;;0.38;0.20;;;3.10;99.90;;;;;;4991367;28;20077;-74
2022/03/01 02:44:14;;;;;;;0.45;0.35;;;3.10;99.90;;;;;;4960211;28;20041;-74
2022/03/01 02:46:40;;;;;;;1.02;0.32;;;3.10;99.90;;;;;;4993497;28;20033;-74
2022/03/01 02:49:07;;;;;;;2.47;1.20;;;3.10;99.90;;;;;;4977902;28;20037;-75
2022/03/01 02:51:34;;;;;;;0.82;0.20;;;3.10;99.90;;;;;;4981210;28;20114;-74
2022/03/01 02:53:59;;;;;;;0.20;0.20;;;3.00;99.90;;;;;;4975496;28;20045;-74
2022/03/01 02:56:25;;;;;;;1.70;1.17;;;3.10;99.90;;;;;;4976304;28;20034;-74
2022/03/01 02:58:55;;;;;;;1.17;0.77;;;3.10;99.90;;;;;;4995107;28;20128;-74
2022/03/01 03:01:21;;;;;;;0.38;0.38;;;3.00;99.90;;;;;;4978640;28;20136;-74
2022/03/01 03:03:47;;;;;;;1.98;1.25;;;3.00;99.90;;;;;;4993120;28;20033;-74
2022/03/01 03:06:13;;;;;;;0.82;0.75;;;3.00;99.90;;;;;;4989995;28;20092;-74
2022/03/01 03:08:39;;;;;;;0.70;0.43;;;3.00;99.90;;;;;;4974586;28;20049;-74
2022/03/01 03:11:05;;;;;;;0.82;0.22;;;3.00;99.90;;;;;;4990814;28;20064;-74
2022/03/01 03:13:31;;;;;;;0.80;0.50;;;3.00;99.90;;;;;;4990164;28;20029;-74
2022/03/01 03:15:56;;;;;;;0.22;0.22;;;3.00;99.90;;;;;;4977030;28;20053;-74
2022/03/01 03:18:23;;;;;;;0.82;0.82;;;3.00;99.90;;;;;;4992802;28;20034;-74
2022/03/01 03:20:48;;;;;;;0.63;0.52;;;3.00;99.90;;;;;;4976519;28;20065;-74
2022/03/01 03:23:14;;;;;;;0.20;0.20;;;3.00;99.90;;;;;;4992309;28;20408;-74
2022/03/01 03:25:39;;;;;;;0.10;0.10;;;3.00;99.90;;;;;;4976725;28;20494;-74
2022/03/01 03:28:05;;;;;;;0.32;0.32;;;2.90;99.90;;;;;;4992491;28;20045;-74
2022/03/01 03:30:30;;;;;;;0.52;0.30;;;2.90;99.90;;;;;;4993327;28;20060;-74
2022/03/01 03:32:56;;;;;;;0.40;0.30;;;2.90;99.90;;;;;;4992666;28;20041;-74
2022/03/01 03:35:22;;;;;;;0.10;0.10;;;2.90;99.90;;;;;;4993126;28;20117;-74
2022/03/01 03:37:49;;;;;;;2.67;1.15;;;2.90;99.90;;;;;;4994049;28;20046;-74
2022/03/01 03:40:15;;;;;;;3.50;0.60;;;2.90;99.90;;;;;;4989740;28;20049;-74
2022/03/01 03:42:42;;;;;;;0.10;0.10;;;2.90;99.90;;;;;;4976146;28;20038;-74
2022/03/01 03:45:08;;;;;;;2.65;1.20;;;2.90;99.90;;;;;;4976571;28;20118;-74
2022/03/01 03:47:34;;;;;;;0.22;0.20;;;2.90;99.90;;;;;;4977895;28;20117;-74
2022/03/01 03:49:59;;;;;;;0.20;0.20;;;2.90;99.90;;;;;;4994504;28;20121;-74
2022/03/01 03:52:25;;;;;;;0.52;0.50;;;2.90;99.90;;;;;;4991877;28;20041;-74
2022/03/01 03:54:50;;;;;;;1.38;0.50;;;2.90;99.90;;;;;;4990909;28;20643;-74
2022/03/01 03:57:17;;;;;;;1.50;0.80;;;2.90;99.90;;;;;;4994117;28;20081;-74
2022/03/01 03:59:43;;;;;;;1.00;0.17;;;2.90;99.90;;;;;;4976939;28;20128;-74
2022/03/01 04:02:08;;;;;;;0.35;0.20;;;2.90;99.90;;;;;;4994927;28;20136;-74
2022/03/01 04:04:35;;;;;;;1.15;0.43;;;2.90;99.90;;;;;;4972802;28;20081;-74
2022/03/01 04:07:01;;;;;;;0.22;0.22;;;2.90;99.90;;;;;;4975638;28;20092;-74
2022/03/01 04:09:26;;;;;;;2.40;0.20;;;3.00;99.90;;;;;;4992655;28;20042;-74
2022/03/01 04:11:52;;;;;;;3.80;1.17;;;2.90;99.90;;;;;;4975033;28;20041;-74
2022/03/01 04:14:18;;;;;;;0.95;0.80;;;3.00;99.90;;;;;;4993419;28;20041;-74
2022/03/01 04:16:44;;;;;;;1.00;0.68;;;3.00;99.90;;;;;;4991692;28;20038;-74
2022/03/01 04:19:10;;;;;;;1.40;0.55;;;2.90;99.90;;;;;;4974854;28;20077;-74
2022/03/01 04:21:37;;;;;;;0.30;0.22;;;3.00;99.90;;;;;;4991545;28;20044;-74
2022/03/01 04:24:03;;;;;;;0.77;0.63;;;2.90;99.90;;;;;;4975246;28;20052;-74
2022/03/01 04:26:28;;;;;;;0.10;0.10;;;2.90;99.90;;;;;;4990479;28;20041;-74
2022/03/01 04:28:54;;;;;;;0.52;0.52;;;2.90;99.90;;;;;;4991747;28;20038;-74
2022/03/01 04:31:21;;;;;;;0.63;0.43;;;3.00;99.90;;;;;;4977607;28;20050;-74
2022/03/01 04:33:47;;;;;;;0.65;0.60;;;3.00;99.90;;;;;;4987219;28;20045;-74
2022/03/01 04:36:14;;;;;;;1.50;0.57;;;2.90;99.90;;;;;;4974581;28;20052;-74
2022/03/01 04:38:40;;;;;;;0.98;0.77;;;2.90;99.90;;;;;;4992311;28;20052;-74
2022/03/01 04:41:06;;;;;;;2.05;0.85;;;2.90;99.90;;;;;;4990680;28;20041;-74
2022/03/01 04:43:32;;;;;;;0.17;0.17;;;2.90;99.90;;;;;;4977961;28;20073;-75
2022/03/01 04:45:58;;;;;;;0.65;0.65;;;2.90;99.90;;;;;;4991263;28;20065;-74
2022/03/01 04:48:24;;;;;;;0.50;0.38;;;2.90;99.90;;;;;;4974848;28;20095;-74
2022/03/01 04:50:51;;;;;;;1.55;0.98;;;2.90;99.90;;;;;;4975797;28;20038;-74
2022/03/01 04:53:17;;;;;;;1.00;0.55;;;2.90;99.90;;;;;;4992338;28;20038;-75
2022/03/01 04:55:43;;;;;;;2.90;1.25;;;2.90;99.90;;;;;;4990061;28;20049;-74
2022/03/01 04:58:09;;;;;;;0.52;0.40;;;2.90;99.90;;;;;;4971852;28;20042;-74
2022/03/01 05:00:35;;;;;;;1.35;0.73;;;2.90;99.90;;;;;;4977328;28;20488;-74
2022/03/01 05:03:01;;;;;;;4.25;0.98;;;2.90;99.90;;;;;;4991232;28;20049;-74
2022/03/01 05:05:26;;;;;;;0.77;0.40;;;2.90;99.90;;;;;;4991729;28;20041;-74
2022/03/01 05:07:52;;;;;;;0.73;0.73;;;2.90;99.90;;;;;;4976168;28;20760;-74
2022/03/01 05:10:19;;;;;;;0.52;0.52;;;3.00;99.90;;;;;;4990269;28;20033;-74
2022/03/01 05:12:56;;;;;;;0.45;0.45;;;3.00;99.90;;;;;;4991254;28;20520;-74
2022/03/01 05:15:23;;;;;;;1.38;0.95;;;3.00;99.90;;;;;;4990384;28;20034;-74
2022/03/01 05:17:49;;;;;;;1.08;0.50;;;3.00;99.90;;;;;;4972369;28;20166;-74
2022/03/01 05:20:17;;;;;;;0.30;0.22;;;3.00;99.90;;;;;;4977803;28;20037;-74
2022/03/01 05:22:43;;;;;;;0.65;0.35;;;3.00;99.90;;;;;;4973176;28;20531;-74
2022/03/01 05:25:12;;;;;;;0.35;0.35;;;3.00;99.90;;;;;;4990766;28;20045;-74
2022/03/01 05:27:39;;;;;;;1.90;0.68;;;3.00;99.90;;;;;;4989639;28;20045;-74
2022/03/01 05:30:07;;;;;;;0.95;0.55;;;3.00;99.90;;;;;;4973914;28;20523;-75
2022/03/01 05:32:46;;;;;;;0.30;0.20;;;3.00;99.90;;;;;;4989608;28;20050;-74
2022/03/01 05:35:13;;;;;;;0.10;0.10;;;3.00;99.90;;;;;;4974524;28;20034;-74
2022/03/01 05:37:41;;;;;;;0.20;0.20;;;3.00;99.90;;;;;;4988388;28;20045;-74
2022/03/01 05:40:07;;;;;;;0.80;0.65;;;3.00;99.90;;;;;;4973725;28;20038;-74
2022/03/01 05:42:34;;;;;;;1.77;0.57;;;3.00;99.90;;;;;;4974287;28;20618;-74
2022/03/01 05:44:59;;;;;;;2.08;0.55;;;3.00;99.90;;;;;;4990797;28;20037;-74
2022/03/01 05:47:28;;;;;;;1.13;0.70;;;3.00;99.90;;;;;;4988932;28;20048;-74
2022/03/01 05:49:54;;;;;;;0.50;0.50;;;3.00;99.90;;;;;;4974186;28;20422;-74
2022/03/01 05:52:20;;;;;;;1.60;0.60;;;3.00;99.90;;;;;;4988947;28;20531;-74
2022/03/01 05:54:46;;;;;;;2.63;0.90;;;3.00;99.90;;;;;;4971775;28;20045;-74
2022/03/01 05:57:12;;;;;;;2.25;0.80;;;3.10;99.90;;;;;;4973139;28;20040;-74
2022/03/01 05:59:37;;;;;;;1.67;1.27;;;3.00;99.90;;;;;;4972909;28;20567;-74
2022/03/01 06:02:03;;;;;;;1.30;0.60;;;3.10;99.90;;;;;;4987767;28;20088;-74
2022/03/01 06:04:29;;;;;;;6.80;0.95;;;3.00;99.90;;;;;;4973883;28;20034;-74
2022/03/01 06:06:54;;;;;;;1.90;1.13;;;3.10;99.90;;;;;;4976977;28;20044;-74
2022/03/01 06:09:20;;;;;;;1.30;1.08;;;3.00;99.90;;;;;;4977716;28;20404;-74
2022/03/01 06:11:46;;;;;;;2.08;1.02;;;3.00;99.90;;;;;;4994378;28;20128;-74
2022/03/01 06:14:11;;;;;;;0.45;0.45;;;3.00;99.90;;;;;;4994012;28;20046;-74
2022/03/01 06:16:37;;;;;;;1.55;0.80;;;3.00;99.90;;;;;;4970718;28;20044;-74
2022/03/01 06:19:03;;;;;;;0.75;0.40;;;3.00;99.90;;;;;;4993188;28;20503;-74
2022/03/01 06:21:30;;;;;;;0.75;0.38;;;3.00;99.90;;;;;;4977661;28;20494;-74
2022/03/01 06:23:56;;;;;;;0.05;0.05;;;3.00;99.90;;;;;;4993713;28;20061;-74
2022/03/01 06:26:22;;;;;;;0.30;0.20;;;3.00;99.90;;;;;;4994119;28;20671;-74
2022/03/01 06:28:49;;;;;;;1.20;0.95;;;2.90;99.90;;;;;;4977385;28;20042;-74
2022/03/01 06:31:14;;;;;;;0.30;0.22;;;2.90;99.90;;;;;;4976867;28;20062;-74
2022/03/01 06:33:40;;;;;;;3.00;1.15;;;2.90;99.90;;;;;;4967980;28;20037;-74
2022/03/01 06:36:06;;;;;;;0.47;0.47;;;2.90;99.90;;;;;;4993841;28;21719;-74
2022/03/01 06:38:31;;;;;;;0.43;0.40;;;3.00;99.90;;;;;;4976466;28;20030;-74
2022/03/01 06:40:57;;;;;;;0.90;0.70;;;3.00;99.90;;;;;;4990237;28;20041;-74
2022/03/01 06:43:24;;;;;;;1.65;1.40;;;2.90;99.90;;;;;;4980980;28;20133;-74
2022/03/01 06:45:50;;;;;;;1.23;0.77;;;3.00;99.90;;;;;;4989723;28;20050;-74
2022/03/01 06:48:16;;;;;;;0.25;0.25;;;3.00;99.90;;;;;;4995421;28;20038;-74
2022/03/01 06:50:41;;;;;;;1.27;0.80;;;3.00;99.90;;;;;;4991873;28;20563;-75
2022/03/01 06:53:07;;;;;;;2.75;1.05;;;3.00;99.90;;;;;;4993110;28;20364;-75
2022/03/01 06:55:33;;;;;;;2.22;0.95;;;3.00;99.90;;;;;;4997451;28;20085;-75
2022/03/01 06:57:59;;;;;;;0.30;0.30;;;3.00;99.90;;;;;;4975791;28;20053;-75
2022/03/01 07:00:25;;;;;;;1.05;0.47;;;3.00;99.90;;;;;;4978256;28;20164;-75
2022/03/01 07:02:50;;;;;;;1.20;0.43;;;3.00;99.90;;;;;;4987077;28;20034;-75
2022/03/01 07:05:17;;;;;;;2.08;0.90;;;3.00;99.90;;;;;;4977811;28;20046;-75
2022/03/01 07:07:44;;;;;;;0.28;0.28;;;3.00;99.90;;;;;;4979636;28;20399;-75
2022/03/01 07:10:12;;;;;;;0.70;0.52;;;3.10;99.90;;;;;;4984890;28;20038;-75
2022/03/01 07:12:40;;;;;;;1.25;0.32;;;3.10;99.90;;;;;;4990242;28;20042;-74
2022/03/01 07:15:07;;;;;;;1.45;0.73;;;3.10;99.90;;;;;;5006162;28;20038;-74
2022/03/01 07:17:32;;;;;;;2.17;0.50;;;3.20;99.90;;;;;;4989194;28;20070;-74
2022/03/01 07:19:58;;;;;;;1.95;0.95;;;3.20;99.90;;;;;;4978017;28;20147;-74
2022/03/01 07:22:24;;;;;;;1.17;0.82;;;3.20;99.90;;;;;;4976894;28;20422;-74
2022/03/01 07:24:49;;;;;;;0.75;0.70;;;3.20;99.90;;;;;;4975663;28;20041;-74
2022/03/01 07:27:15;;;;;;;5.15;1.08;;;3.30;99.90;;;;;;4991469;28;20037;-74
2022/03/01 07:29:40;;;;;;;1.40;0.43;;;3.30;99.90;;;;;;4991045;28;20092;-74
2022/03/01 07:32:07;;;;;;;0.17;0.15;;;3.30;99.90;;;;;;4976182;28;20488;-74
2022/03/01 07:34:34;;;;;;;0.63;0.32;;;3.40;99.90;;;;;;4969312;28;20065;-74
2022/03/01 07:37:00;;;;;;;0.20;0.13;;;3.40;99.90;;;;;;4989777;28;20037;-74
2022/03/01 07:39:25;;;;;;;0.65;0.55;;;3.40;99.90;;;;;;4988710;28;20041;-74
2022/03/01 07:41:51;;;;;;;0.57;0.50;;;3.50;99.90;;;;;;4988768;28;20491;-75
2022/03/01 07:44:18;;;;;;;0.52;0.38;;;3.50;99.90;;;;;;4985458;28;20039;-74
2022/03/01 07:46:44;;;;;;;1.38;0.65;;;3.50;99.90;;;;;;4989407;28;20042;-75
2022/03/01 07:49:09;;;;;;;2.58;1.17;;;3.50;99.90;;;;;;4988307;28;20045;-75
2022/03/01 07:51:35;;;;;;;1.63;0.82;;;3.60;99.90;;;;;;4991418;28;20125;-75
2022/03/01 07:54:01;;;;;;;0.75;0.65;;;3.60;99.90;;;;;;4983480;28;20026;-74
2022/03/01 07:56:27;;;;;;;0.95;0.35;;;3.70;99.90;;;;;;4984717;28;20069;-75
2022/03/01 07:58:53;;;;;;;0.90;0.82;;;3.70;99.90;;;;;;4987032;28;20124;-75
2022/03/01 08:01:19;;;;;;;1.73;0.88;;;3.70;99.90;;;;;;4973889;28;20135;-75
2022/03/01 08:03:45;;;;;;;0.68;0.40;;;3.80;99.90;;;;;;4988985;28;20499;-74
2022/03/01 08:06:11;;;;;;;1.92;1.00;;;3.80;99.90;;;;;;4989819;28;20346;-75
2022/03/01 08:08:37;;;;;;;1.63;0.90;;;3.90;99.90;;;;;;4990225;28;20158;-75
2022/03/01 08:11:04;;;;;;;1.42;0.77;;;3.80;99.90;;;;;;4989158;28;20243;-75
2022/03/01 08:13:31;;;;;;;6.03;0.90;;;3.90;99.90;;;;;;4970673;28;20034;-75
2022/03/01 08:15:56;;;;;;;1.33;1.10;;;3.90;99.90;;;;;;4963983;28;20092;-75
2022/03/01 08:18:22;;;;;;;0.65;0.47;;;4.00;99.90;;;;;;4988946;28;20069;-74
2022/03/01 08:20:48;;;;;;;1.02;0.52;;;3.90;99.90;;;;;;4973687;28;20092;-74
2022/03/01 08:23:13;;;;;;;1.13;1.02;;;4.00;99.90;;;;;;4974285;28;20125;-75
2022/03/01 08:25:39;;;;;;;1.27;0.63;;;4.10;99.90;;;;;;4972830;28;20033;-75
2022/03/01 08:28:05;;;;;;;0.43;0.30;;;4.00;99.90;;;;;;4989988;28;20034;-75
2022/03/01 08:30:30;;;;;;;0.98;0.63;;;4.00;99.90;;;;;;4987977;28;20057;-75
2022/03/01 08:32:57;;;;;;;3.25;1.65;;;4.10;99.90;;;;;;5003304;28;20087;-75
2022/03/01 08:35:23;;;;;;;0.90;0.57;;;4.10;99.90;;;;;;4973906;28;20526;-74
2022/03/01 08:37:51;;;;;;;1.23;0.63;;;4.10;99.90;;;;;;4990188;28;20515;-75
2022/03/01 08:40:19;;;;;;;0.85;0.25;;;4.20;99.90;;;;;;4972365;28;20038;-75
2022/03/01 08:42:45;;;;;;;2.42;0.95;;;4.20;99.90;;;;;;4989382;28;20041;-75
2022/03/01 08:45:10;;;;;;;1.45;0.30;;;4.20;99.90;;;;;;4966209;28;20048;-75
2022/03/01 08:47:37;;;;;;;3.50;1.52;;;4.20;99.90;;;;;;4982673;28;20038;-75
2022/03/01 08:50:04;;;;;;;1.05;1.05;;;4.30;99.90;;;;;;4969329;28;20041;-75
2022/03/01 08:52:29;;;;;;;0.80;0.80;;;4.30;99.90;;;;;;4987901;28;20487;-75
2022/03/01 08:54:55;;;;;;;1.75;0.98;;;4.30;99.90;;;;;;4986414;28;20050;-75
2022/03/01 08:57:20;;;;;;;0.30;0.22;;;4.40;99.90;;;;;;4990511;28;20038;-75
2022/03/01 08:59:46;;;;;;;0.55;0.47;;;4.40;99.90;;;;;;4989865;28;20041;-74
2022/03/01 09:02:11;;;;;;;1.17;0.95;;;4.50;99.90;;;;;;4961345;28;20045;-75
2022/03/01 09:04:37;;;;;;;2.17;0.80;;;4.50;99.90;;;;;;4986241;28;20512;-75
2022/03/01 09:07:04;;;;;;;1.90;0.85;;;4.50;99.90;;;;;;4987431;28;20049;-75
2022/03/01 09:09:31;;;;;;;0.85;0.50;;;4.60;99.90;;;;;;4989589;28;20041;-74
2022/03/01 09:11:58;;;;;;;2.13;1.25;;;4.60;99.90;;;;;;4987201;28;20033;-74
2022/03/01 09:14:23;;;;;;;3.20;1.25;;;4.60;99.90;;;;;;4983169;28;20069;-74
2022/03/01 09:16:49;;;;;;;0.55;0.40;;;4.70;99.90;;;;;;4989875;28;20077;-75
2022/03/01 09:19:15;;;;;;;0.70;0.45;;;4.70;99.90;;;;;;4973939;28;20041;-74
2022/03/01 09:21:42;;;;;;;2.00;0.73;;;4.80;99.90;;;;;;4970205;28;20038;-75
2022/03/01 09:24:07;;;;;;;0.68;0.60;;;4.80;99.90;;;;;;4987256;28;20418;-75
2022/03/01 09:26:33;;;;;;;2.65;1.02;;;4.90;99.90;;;;;;4987274;28;20041;-75
2022/03/01 09:28:59;;;;;;;1.33;1.17;;;4.90;99.90;;;;;;4970733;28;20049;-75
2022/03/01 09:31:25;;;;;;;2.50;0.95;;;5.00;99.90;;;;;;4989243;28;20057;-75
2022/03/01 09:33:50;;;;;;;0.85;0.40;;;5.00;99.50;;;;;;4971329;28;20048;-75
2022/03/01 09:36:16;;;;;;;2.47;0.80;;;5.10;99.90;;;;;;4972462;28;20406;-75
2022/03/01 09:38:42;;;;;;;2.67;1.23;;;5.10;99.80;;;;;;4987674;28;20044;-75
2022/03/01 09:41:10;;;;;;;0.90;0.63;;;5.20;99.90;;;;;;4972091;28;20053;-75
2022/03/01 09:43:37;;;;;;;1.45;0.55;;;5.20;99.90;;;;;;4957999;28;20042;-75
2022/03/01 09:46:03;;;;;;;1.25;1.05;;;5.30;99.90;;;;;;4983005;28;20065;-75
2022/03/01 09:48:29;;;;;;;1.02;0.63;;;5.30;99.90;;;;;;4990164;28;20065;-75
2022/03/01 09:50:56;;;;;;;0.38;0.38;;;5.40;99.50;;;;;;4969854;28;20561;-75
2022/03/01 09:53:22;;;;;;;1.67;0.90;;;5.40;99.90;;;;;;4973177;28;20030;-75
2022/03/01 09:55:48;;;;;;;2.30;0.77;;;5.50;99.90;;;;;;4972191;28;20411;-75
2022/03/01 09:58:14;;;;;;;1.92;1.38;;;5.60;99.90;;;;;;4988458;28;20039;-75
2022/03/01 10:00:40;;;;;;;1.85;0.88;;;5.60;99.90;;;;;;4985703;28;20041;-75
2022/03/01 10:03:08;;;;;;;1.48;1.23;;;5.70;99.50;;;;;;4972939;28;20457;-75
2022/03/01 10:05:40;;;;;;;1.60;1.15;;;5.70;99.40;;;;;;4988536;28;20471;-75
2022/03/01 10:08:13;;;;;;;1.80;0.90;;;5.70;98.70;;;;;;4972531;28;20085;-75
2022/03/01 10:10:42;;;;;;;1.13;0.82;;;5.70;99.50;;;;;;4968435;28;20044;-74
2022/03/01 10:13:07;;;;;;;1.33;1.13;;;5.70;99.90;;;;;;4981048;28;20050;-74
2022/03/01 10:15:33;;;;;;;1.00;0.40;;;5.70;99.90;;;;;;4983084;28;20045;-74
2022/03/01 10:18:12;;;;;;;2.17;0.80;;;5.80;99.90;;;;;;4982294;28;20120;-75
2022/03/01 10:20:40;;;;;;;1.77;0.40;;;5.80;99.30;;;;;;4986454;28;20096;-75
2022/03/01 10:23:06;;;;;;;1.50;0.60;;;5.80;99.60;;;;;;4982697;28;20069;-74
2022/03/01 10:25:33;;;;;;;2.70;0.88;;;5.90;99.90;;;;;;4987807;28;20371;-75
2022/03/01 10:27:58;;;;;;;3.90;0.93;;;5.90;99.80;;;;;;4976712;28;20395;-74
2022/03/01 10:30:33;;;;;;;3.83;1.25;;;6.00;99.90;;;;;;4985686;28;20080;-74
2022/03/01 10:33:11;;;;;;;2.45;0.63;;;6.00;99.90;;;;;;4987000;28;20045;-75
2022/03/01 10:35:39;;;;;;;0.80;0.70;;;6.10;98.50;;;;;;4988450;28;20034;-75
2022/03/01 10:38:07;;;;;;;3.65;1.30;;;6.10;98.60;;;;;;4978970;28;20116;-75
2022/03/01 10:40:35;;;;;;;2.60;1.17;;;6.20;98.80;;;;;;4985035;28;20040;-75
2022/03/01 10:43:07;;;;;;;0.95;0.52;;;6.20;97.30;;;;;;4979520;28;20093;-75
2022/03/01 10:45:34;;;;;;;2.25;1.10;;;6.20;98.60;;;;;;4979238;28;20065;-75
2022/03/01 10:48:00;;;;;;;2.83;1.65;;;6.30;98.80;;;;;;4971178;28;20069;-75
2022/03/01 10:50:25;;;;;;;3.42;1.00;;;6.40;99.90;;;;;;4988127;28;20522;-75
2022/03/01 10:52:51;;;;;;;1.35;1.02;;;6.50;99.10;;;;;;4987565;28;20040;-75
2022/03/01 10:55:28;;;;;;;0.73;0.63;;;6.60;99.00;;;;;;4970154;28;20505;-75
2022/03/01 10:58:10;;;;;;;2.78;1.08;;;6.70;98.60;;;;;;4969403;28;20045;-75
2022/03/01 11:00:37;;;;;;;1.60;1.05;;;6.80;97.10;;;;;;4964170;28;20475;-75
2022/03/01 11:03:06;;;;;;;0.43;0.30;;;6.80;98.00;;;;;;4986706;28;20046;-75
2022/03/01 11:05:34;;;;;;;0.77;0.63;;;6.90;97.90;;;;;;4986773;28;20459;-75
2022/03/01 11:08:03;;;;;;;1.70;0.95;;;7.00;98.10;;;;;;4986299;28;20136;-75
2022/03/01 11:10:31;;;;;;;1.05;0.75;;;7.10;97.80;;;;;;4972616;28;20034;-75
2022/03/01 11:13:00;;;;;;;2.78;1.08;;;7.20;96.80;;;;;;4989778;28;20038;-75
2022/03/01 11:16:03;;;;;;;1.77;1.02;;;7.30;96.60;;;;;;4971641;28;20451;-75
2022/03/01 11:18:32;;;;;;;3.03;0.82;;;7.30;95.00;;;;;;4980124;28;20192;-74
2022/03/01 11:21:00;;;;;;;1.05;0.63;;;7.40;96.70;;;;;;4972171;28;20042;-74
2022/03/01 11:23:27;;;;;;;3.72;0.80;;;7.50;97.30;;;;;;4975648;28;20283;-74
2022/03/01 11:25:53;;;;;;;1.75;1.02;;;7.50;96.40;;;;;;4977693;28;20034;-75
2022/03/01 11:28:29;;;;;;;2.55;1.20;;;7.50;96.80;;;;;;4973303;28;20034;-75
2022/03/01 11:30:55;;;;;;;1.73;1.48;;;7.60;95.80;;;;;;4969081;28;20061;-75
2022/03/01 11:33:35;;;;;;;1.20;0.70;;;7.60;96.60;;;;;;4972065;28;20049;-75
2022/03/01 11:36:02;;;;;;;2.25;1.67;;;7.70;96.10;;;;;;4967817;28;20484;-75
2022/03/01 11:38:32;;;;;;;1.85;0.90;;;7.70;97.00;;;;;;4986460;28;20088;-75
2022/03/01 11:41:22;;;;;;;1.33;0.70;;;7.70;96.20;;;;;;4986418;28;20042;-75
2022/03/01 11:43:57;;;;;;;1.20;0.98;;;7.70;94.60;;;;;;4990696;28;20038;-75
2022/03/01 11:46:23;;;;;;;3.37;1.10;;;7.80;95.30;;;;;;4983250;28;20044;-75
2022/03/01 11:48:57;;;;;;;1.67;0.85;;;7.80;95.50;;;;;;4973773;28;20046;-75
2022/03/01 11:51:39;;;;;;;1.17;0.63;;;7.80;95.50;;;;;;4968403;28;20060;-75
2022/03/01 11:54:07;;;;;;;1.10;0.52;;;7.80;94.30;;;;;;4989642;28;20053;-75
2022/03/01 11:56:38;;;;;;;2.90;1.20;;;7.90;95.60;;;;;;4984394;28;20109;-75
2022/03/01 11:59:09;;;;;;;1.13;0.45;;;7.90;95.10;;;;;;4973609;28;20033;-75
2022/03/01 12:01:36;;;;;;;3.60;1.65;;;7.90;95.60;;;;;;4963482;28;20045;-75
2022/03/01 12:04:04;;;;;;;0.75;0.60;;;8.00;96.60;;;;;;4979040;28;20045;-75
2022/03/01 12:06:31;;;;;;;2.95;1.10;;;8.00;96.00;;;;;;4980598;28;20120;-75
2022/03/01 12:08:58;;;;;;;2.83;1.40;;;8.00;96.70;;;;;;4968033;28;20404;-78
2022/03/01 12:11:47;;;;;;;2.47;1.15;;;8.10;96.70;;;;;;4986925;28;20034;-75
2022/03/01 12:14:19;;;;;;;3.20;1.35;;;8.20;95.50;;;;;;4969261;28;20099;-75
2022/03/01 12:16:46;;;;;;;0.90;0.47;;;8.20;95.50;;;;;;4982794;28;20042;-75
2022/03/01 12:19:15;;;;;;;2.97;1.45;;;8.30;95.60;;;;;;4974706;28;20083;-75
2022/03/01 12:21:51;;;;;;;2.38;0.88;;;8.30;95.50;;;;;;4983737;28;20042;-76
2022/03/01 12:24:18;;;;;;;1.45;0.77;;;8.40;95.20;;;;;;4987680;28;20262;-77
2022/03/01 12:26:46;;;;;;;2.03;0.85;;;8.40;95.10;;;;;;4971290;28;20050;-75
2022/03/01 12:29:14;;;;;;;3.35;1.58;;;8.40;95.30;;;;;;4992636;28;20454;-75
2022/03/01 12:31:39;;;;;;;3.05;0.88;;;8.40;95.60;;;;;;4970644;28;20057;-77
2022/03/01 12:34:07;;;;;;;3.10;1.73;;;8.40;95.00;;;;;;4974065;28;20041;-77
2022/03/01 12:36:35;;;;;;;3.28;1.30;;;8.30;95.40;;;;;;4982683;28;20476;-77
2022/03/01 12:39:14;;;;;;;3.33;1.60;;;8.30;95.00;;;;;;4987435;28;20054;-77
2022/03/01 12:41:41;;;;;;;2.17;0.88;;;8.40;94.90;;;;;;4983890;28;20048;-77
2022/03/01 12:44:09;;;;;;;1.27;0.80;;;8.40;96.10;;;;;;4989490;28;20045;-76
2022/03/01 12:46:36;;;;;;;1.08;0.80;;;8.40;96.50;;;;;;4966522;28;20069;-75
2022/03/01 12:49:06;;;;;;;1.35;0.90;;;8.50;96.20;;;;;;4983201;28;20041;-75
2022/03/01 12:51:33;;;;;;;2.33;1.10;;;8.50;95.30;;;;;;4981653;28;20037;-76
2022/03/01 12:54:11;;;;;;;1.77;0.80;;;8.50;95.40;;;;;;4983503;28;20079;-75
2022/03/01 12:56:39;;;;;;;2.78;0.80;;;8.50;95.60;;;;;;4983737;28;20054;-74